sensor_id;sensor_type;location;lat;lon;timestamp;P1;durP1;ratioP1;P2;durP2;ratioP2
72611;SDS011;60655;52.182;4.474;2023-02-28T00:01:40;5.20;;;1.95;;
72611;SDS011;60655;52.182;4.474;2023-02-28T00:03:41;4.90;;;1.95;;
72611;SDS011;60655;52.182;4.474;2023-02-28T00:05:42;3.28;;;1.30;;
72611;SDS011;60655;52.182;4.474;2023-02-28T00:07:45;6.40;;;2.22;;
72611;SDS011;60655;52.182;4.474;2023-02-28T00:09:46;6.63;;;1.95;;
72611;SDS011;60655;52.182;4.474;2023-02-28T00:11:47;5.68;;;1.95;;
72611;SDS011;60655;52.182;4.474;2023-02-28T00:13:48;5.65;;;1.80;;
72611;SDS011;60655;52.182;4.474;2023-02-28T00:15:58;5.75;;;1.90;;
72611;SDS011;60655;52.182;4.474;2023-02-28T00:18:01;6.03;;;2.00;;
72611;SDS011;60655;52.182;4.474;2023-02-28T00:20:02;6.18;;;1.83;;
72611;SDS011;60655;52.182;4.474;2023-02-28T00:22:08;6.22;;;1.80;;
72611;SDS011;60655;52.182;4.474;2023-02-28T00:24:09;7.35;;;2.65;;
72611;SDS011;60655;52.182;4.474;2023-02-28T00:26:10;9.15;;;1.77;;
72611;SDS011;60655;52.182;4.474;2023-02-28T00:28:11;5.97;;;1.90;;
72611;SDS011;60655;52.182;4.474;2023-02-28T00:30:13;9.07;;;2.08;;
72611;SDS011;60655;52.182;4.474;2023-02-28T00:32:16;6.65;;;2.03;;
72611;SDS011;60655;52.182;4.474;2023-02-28T00:34:18;7.07;;;2.17;;
72611;SDS011;60655;52.182;4.474;2023-02-28T00:36:19;5.95;;;2.17;;
72611;SDS011;60655;52.182;4.474;2023-02-28T00:38:20;6.85;;;2.50;;
72611;SDS011;60655;52.182;4.474;2023-02-28T00:40:21;6.65;;;2.00;;
72611;SDS011;60655;52.182;4.474;2023-02-28T00:42:22;8.15;;;2.28;;
72611;SDS011;60655;52.182;4.474;2023-02-28T00:44:24;7.50;;;1.98;;
72611;SDS011;60655;52.182;4.474;2023-02-28T00:46:25;9.13;;;2.08;;
72611;SDS011;60655;52.182;4.474;2023-02-28T00:48:26;5.55;;;2.25;;
72611;SDS011;60655;52.182;4.474;2023-02-28T00:52:27;6.75;;;2.00;;
72611;SDS011;60655;52.182;4.474;2023-02-28T00:54:28;5.50;;;1.92;;
72611;SDS011;60655;52.182;4.474;2023-02-28T00:56:29;5.78;;;1.95;;
72611;SDS011;60655;52.182;4.474;2023-02-28T00:58:30;6.97;;;1.92;;
72611;SDS011;60655;52.182;4.474;2023-02-28T01:02:32;6.05;;;1.80;;
72611;SDS011;60655;52.182;4.474;2023-02-28T01:04:33;6.65;;;1.77;;
72611;SDS011;60655;52.182;4.474;2023-02-28T01:06:34;5.85;;;1.83;;
72611;SDS011;60655;52.182;4.474;2023-02-28T01:08:36;5.95;;;1.80;;
72611;SDS011;60655;52.182;4.474;2023-02-28T01:10:37;5.03;;;1.88;;
72611;SDS011;60655;52.182;4.474;2023-02-28T01:12:38;8.30;;;2.00;;
72611;SDS011;60655;52.182;4.474;2023-02-28T01:14:39;5.68;;;2.20;;
72611;SDS011;60655;52.182;4.474;2023-02-28T01:18:41;6.32;;;1.60;;
72611;SDS011;60655;52.182;4.474;2023-02-28T01:20:43;9.75;;;1.98;;
72611;SDS011;60655;52.182;4.474;2023-02-28T01:22:45;5.45;;;1.70;;
72611;SDS011;60655;52.182;4.474;2023-02-28T01:24:46;7.93;;;2.38;;
72611;SDS011;60655;52.182;4.474;2023-02-28T01:26:47;6.05;;;2.13;;
72611;SDS011;60655;52.182;4.474;2023-02-28T01:28:48;11.90;;;2.15;;
72611;SDS011;60655;52.182;4.474;2023-02-28T01:30:51;8.57;;;2.20;;
72611;SDS011;60655;52.182;4.474;2023-02-28T01:34:54;5.07;;;1.67;;
72611;SDS011;60655;52.182;4.474;2023-02-28T01:36:55;6.55;;;2.13;;
72611;SDS011;60655;52.182;4.474;2023-02-28T01:38:56;6.93;;;2.10;;
72611;SDS011;60655;52.182;4.474;2023-02-28T01:40:57;5.88;;;2.08;;
72611;SDS011;60655;52.182;4.474;2023-02-28T01:47:36;7.47;;;2.22;;
72611;SDS011;60655;52.182;4.474;2023-02-28T01:49:41;5.22;;;2.05;;
72611;SDS011;60655;52.182;4.474;2023-02-28T01:51:53;5.65;;;2.03;;
72611;SDS011;60655;52.182;4.474;2023-02-28T01:54:01;7.38;;;2.00;;
72611;SDS011;60655;52.182;4.474;2023-02-28T01:56:14;7.18;;;2.00;;
72611;SDS011;60655;52.182;4.474;2023-02-28T01:58:22;6.63;;;2.13;;
72611;SDS011;60655;52.182;4.474;2023-02-28T02:00:24;6.57;;;2.20;;
72611;SDS011;60655;52.182;4.474;2023-02-28T02:02:30;7.93;;;2.25;;
72611;SDS011;60655;52.182;4.474;2023-02-28T02:04:42;6.57;;;2.50;;
72611;SDS011;60655;52.182;4.474;2023-02-28T02:06:50;11.82;;;2.30;;
72611;SDS011;60655;52.182;4.474;2023-02-28T02:08:51;9.82;;;2.22;;
72611;SDS011;60655;52.182;4.474;2023-02-28T02:10:56;8.25;;;2.40;;
72611;SDS011;60655;52.182;4.474;2023-02-28T02:15:36;6.63;;;2.42;;
72611;SDS011;60655;52.182;4.474;2023-02-28T02:18:00;6.75;;;2.15;;
72611;SDS011;60655;52.182;4.474;2023-02-28T02:20:16;8.57;;;2.30;;
72611;SDS011;60655;52.182;4.474;2023-02-28T02:24:47;7.05;;;2.67;;
72611;SDS011;60655;52.182;4.474;2023-02-28T02:29:45;7.20;;;2.30;;
72611;SDS011;60655;52.182;4.474;2023-02-28T02:34:56;8.43;;;2.70;;
72611;SDS011;60655;52.182;4.474;2023-02-28T02:37:11;7.05;;;2.20;;
72611;SDS011;60655;52.182;4.474;2023-02-28T02:39:36;7.43;;;2.28;;
72611;SDS011;60655;52.182;4.474;2023-02-28T02:41:52;6.43;;;2.67;;
72611;SDS011;60655;52.182;4.474;2023-02-28T02:44:28;10.07;;;2.67;;
72611;SDS011;60655;52.182;4.474;2023-02-28T02:46:34;9.73;;;2.35;;
72611;SDS011;60655;52.182;4.474;2023-02-28T02:48:39;7.70;;;2.30;;
72611;SDS011;60655;52.182;4.474;2023-02-28T02:50:46;9.38;;;2.70;;
72611;SDS011;60655;52.182;4.474;2023-02-28T02:52:52;7.05;;;2.42;;
72611;SDS011;60655;52.182;4.474;2023-02-28T02:54:57;6.85;;;2.40;;
72611;SDS011;60655;52.182;4.474;2023-02-28T02:57:01;10.63;;;2.85;;
72611;SDS011;60655;52.182;4.474;2023-02-28T02:59:07;7.85;;;2.30;;
72611;SDS011;60655;52.182;4.474;2023-02-28T03:01:14;11.88;;;2.88;;
72611;SDS011;60655;52.182;4.474;2023-02-28T03:03:25;7.07;;;2.38;;
72611;SDS011;60655;52.182;4.474;2023-02-28T03:05:50;6.78;;;2.25;;
72611;SDS011;60655;52.182;4.474;2023-02-28T03:07:51;7.65;;;2.30;;
72611;SDS011;60655;52.182;4.474;2023-02-28T03:09:53;8.65;;;2.83;;
72611;SDS011;60655;52.182;4.474;2023-02-28T03:11:55;9.52;;;2.50;;
72611;SDS011;60655;52.182;4.474;2023-02-28T03:21:27;8.25;;;2.85;;
72611;SDS011;60655;52.182;4.474;2023-02-28T03:25:37;10.88;;;2.65;;
72611;SDS011;60655;52.182;4.474;2023-02-28T03:32:28;8.75;;;2.53;;
72611;SDS011;60655;52.182;4.474;2023-02-28T03:34:37;7.35;;;2.30;;
72611;SDS011;60655;52.182;4.474;2023-02-28T03:36:44;6.28;;;2.53;;
72611;SDS011;60655;52.182;4.474;2023-02-28T03:39:01;8.00;;;2.67;;
72611;SDS011;60655;52.182;4.474;2023-02-28T03:41:12;10.10;;;2.75;;
72611;SDS011;60655;52.182;4.474;2023-02-28T03:43:19;11.27;;;3.10;;
72611;SDS011;60655;52.182;4.474;2023-02-28T03:45:26;8.18;;;2.95;;
72611;SDS011;60655;52.182;4.474;2023-02-28T03:47:31;12.77;;;2.60;;
72611;SDS011;60655;52.182;4.474;2023-02-28T03:49:46;8.95;;;2.72;;
72611;SDS011;60655;52.182;4.474;2023-02-28T03:51:55;15.02;;;3.15;;
72611;SDS011;60655;52.182;4.474;2023-02-28T03:54:04;7.70;;;3.10;;
72611;SDS011;60655;52.182;4.474;2023-02-28T04:01:18;8.10;;;2.90;;
72611;SDS011;60655;52.182;4.474;2023-02-28T04:03:23;6.80;;;2.63;;
72611;SDS011;60655;52.182;4.474;2023-02-28T04:05:24;8.88;;;3.20;;
72611;SDS011;60655;52.182;4.474;2023-02-28T04:07:28;6.80;;;2.70;;
72611;SDS011;60655;52.182;4.474;2023-02-28T04:09:37;9.98;;;3.40;;
72611;SDS011;60655;52.182;4.474;2023-02-28T04:11:40;8.23;;;3.15;;
72611;SDS011;60655;52.182;4.474;2023-02-28T04:13:42;8.20;;;2.95;;
72611;SDS011;60655;52.182;4.474;2023-02-28T04:17:44;10.15;;;2.60;;
72611;SDS011;60655;52.182;4.474;2023-02-28T04:19:45;7.72;;;3.15;;
72611;SDS011;60655;52.182;4.474;2023-02-28T04:21:47;7.47;;;2.97;;
72611;SDS011;60655;52.182;4.474;2023-02-28T04:23:50;8.23;;;2.67;;
72611;SDS011;60655;52.182;4.474;2023-02-28T04:25:54;9.65;;;2.80;;
72611;SDS011;60655;52.182;4.474;2023-02-28T04:27:55;9.75;;;2.78;;
72611;SDS011;60655;52.182;4.474;2023-02-28T04:29:56;9.40;;;2.90;;
72611;SDS011;60655;52.182;4.474;2023-02-28T04:31:58;8.45;;;2.65;;
72611;SDS011;60655;52.182;4.474;2023-02-28T04:33:59;9.88;;;3.03;;
72611;SDS011;60655;52.182;4.474;2023-02-28T04:36:04;12.93;;;3.60;;
72611;SDS011;60655;52.182;4.474;2023-02-28T04:38:08;7.57;;;2.70;;
72611;SDS011;60655;52.182;4.474;2023-02-28T04:40:09;7.53;;;2.80;;
72611;SDS011;60655;52.182;4.474;2023-02-28T04:42:11;9.90;;;3.28;;
72611;SDS011;60655;52.182;4.474;2023-02-28T04:44:13;11.45;;;2.65;;
72611;SDS011;60655;52.182;4.474;2023-02-28T04:46:14;12.90;;;2.88;;
72611;SDS011;60655;52.182;4.474;2023-02-28T04:48:15;9.48;;;3.20;;
72611;SDS011;60655;52.182;4.474;2023-02-28T04:50:16;10.02;;;3.33;;
72611;SDS011;60655;52.182;4.474;2023-02-28T04:52:17;8.90;;;3.25;;
72611;SDS011;60655;52.182;4.474;2023-02-28T04:54:19;11.80;;;3.40;;
72611;SDS011;60655;52.182;4.474;2023-02-28T04:56:20;11.50;;;3.33;;
72611;SDS011;60655;52.182;4.474;2023-02-28T04:58:22;9.00;;;3.13;;
72611;SDS011;60655;52.182;4.474;2023-02-28T05:00:24;7.43;;;2.80;;
72611;SDS011;60655;52.182;4.474;2023-02-28T05:02:25;9.18;;;3.22;;
72611;SDS011;60655;52.182;4.474;2023-02-28T05:04:26;8.68;;;3.30;;
72611;SDS011;60655;52.182;4.474;2023-02-28T05:06:28;11.50;;;3.67;;
72611;SDS011;60655;52.182;4.474;2023-02-28T05:08:30;9.35;;;3.10;;
72611;SDS011;60655;52.182;4.474;2023-02-28T05:10:31;8.15;;;3.13;;
72611;SDS011;60655;52.182;4.474;2023-02-28T05:12:32;11.05;;;3.75;;
72611;SDS011;60655;52.182;4.474;2023-02-28T05:14:33;10.30;;;3.60;;
72611;SDS011;60655;52.182;4.474;2023-02-28T05:16:34;12.18;;;3.78;;
72611;SDS011;60655;52.182;4.474;2023-02-28T05:18:36;10.43;;;3.42;;
72611;SDS011;60655;52.182;4.474;2023-02-28T05:20:37;11.57;;;3.60;;
72611;SDS011;60655;52.182;4.474;2023-02-28T05:22:38;12.25;;;3.95;;
72611;SDS011;60655;52.182;4.474;2023-02-28T05:24:40;9.63;;;3.20;;
72611;SDS011;60655;52.182;4.474;2023-02-28T05:26:42;14.65;;;3.42;;
72611;SDS011;60655;52.182;4.474;2023-02-28T05:28:43;7.95;;;3.22;;
72611;SDS011;60655;52.182;4.474;2023-02-28T05:30:44;8.82;;;3.30;;
72611;SDS011;60655;52.182;4.474;2023-02-28T05:34:50;9.85;;;2.90;;
72611;SDS011;60655;52.182;4.474;2023-02-28T05:36:51;7.07;;;2.85;;
72611;SDS011;60655;52.182;4.474;2023-02-28T05:40:53;9.20;;;2.85;;
72611;SDS011;60655;52.182;4.474;2023-02-28T05:42:54;10.80;;;3.00;;
72611;SDS011;60655;52.182;4.474;2023-02-28T05:44:54;8.20;;;2.92;;
72611;SDS011;60655;52.182;4.474;2023-02-28T05:46:55;7.05;;;3.00;;
72611;SDS011;60655;52.182;4.474;2023-02-28T05:48:57;10.32;;;3.63;;
72611;SDS011;60655;52.182;4.474;2023-02-28T05:51:00;8.20;;;3.50;;
72611;SDS011;60655;52.182;4.474;2023-02-28T05:53:03;10.10;;;3.45;;
72611;SDS011;60655;52.182;4.474;2023-02-28T05:55:04;9.27;;;3.70;;
72611;SDS011;60655;52.182;4.474;2023-02-28T05:57:05;8.32;;;3.00;;
72611;SDS011;60655;52.182;4.474;2023-02-28T05:59:06;7.90;;;2.95;;
72611;SDS011;60655;52.182;4.474;2023-02-28T06:03:27;6.68;;;2.97;;
72611;SDS011;60655;52.182;4.474;2023-02-28T06:05:28;7.03;;;3.17;;
72611;SDS011;60655;52.182;4.474;2023-02-28T06:07:29;9.63;;;3.42;;
72611;SDS011;60655;52.182;4.474;2023-02-28T06:09:29;8.95;;;3.58;;
72611;SDS011;60655;52.182;4.474;2023-02-28T06:11:32;9.55;;;3.53;;
72611;SDS011;60655;52.182;4.474;2023-02-28T06:13:33;9.75;;;3.70;;
72611;SDS011;60655;52.182;4.474;2023-02-28T06:15:35;9.48;;;3.65;;
72611;SDS011;60655;52.182;4.474;2023-02-28T06:17:36;12.23;;;3.50;;
72611;SDS011;60655;52.182;4.474;2023-02-28T06:19:37;9.80;;;3.50;;
72611;SDS011;60655;52.182;4.474;2023-02-28T06:21:39;17.45;;;4.25;;
72611;SDS011;60655;52.182;4.474;2023-02-28T06:23:40;13.23;;;4.38;;
72611;SDS011;60655;52.182;4.474;2023-02-28T06:27:44;11.48;;;3.80;;
72611;SDS011;60655;52.182;4.474;2023-02-28T06:29:45;9.13;;;3.78;;
72611;SDS011;60655;52.182;4.474;2023-02-28T06:33:48;10.82;;;3.60;;
72611;SDS011;60655;52.182;4.474;2023-02-28T06:35:50;12.20;;;3.72;;
72611;SDS011;60655;52.182;4.474;2023-02-28T06:37:51;9.50;;;3.63;;
72611;SDS011;60655;52.182;4.474;2023-02-28T06:39:53;14.45;;;4.68;;
72611;SDS011;60655;52.182;4.474;2023-02-28T06:41:56;11.38;;;3.85;;
72611;SDS011;60655;52.182;4.474;2023-02-28T06:45:58;9.10;;;3.53;;
72611;SDS011;60655;52.182;4.474;2023-02-28T06:48:01;11.25;;;4.47;;
72611;SDS011;60655;52.182;4.474;2023-02-28T06:50:02;11.55;;;4.75;;
72611;SDS011;60655;52.182;4.474;2023-02-28T06:52:04;12.32;;;4.55;;
72611;SDS011;60655;52.182;4.474;2023-02-28T06:54:05;13.43;;;4.70;;
72611;SDS011;60655;52.182;4.474;2023-02-28T06:56:10;11.70;;;4.22;;
72611;SDS011;60655;52.182;4.474;2023-02-28T06:58:12;13.23;;;4.75;;
72611;SDS011;60655;52.182;4.474;2023-02-28T07:00:19;11.07;;;4.57;;
72611;SDS011;60655;52.182;4.474;2023-02-28T07:02:20;12.27;;;5.07;;
72611;SDS011;60655;52.182;4.474;2023-02-28T07:04:21;14.80;;;4.90;;
72611;SDS011;60655;52.182;4.474;2023-02-28T07:06:23;20.38;;;5.57;;
72611;SDS011;60655;52.182;4.474;2023-02-28T07:08:25;14.15;;;5.28;;
72611;SDS011;60655;52.182;4.474;2023-02-28T07:10:27;15.38;;;4.53;;
72611;SDS011;60655;52.182;4.474;2023-02-28T07:12:28;16.40;;;5.53;;
72611;SDS011;60655;52.182;4.474;2023-02-28T07:14:29;13.07;;;5.25;;
72611;SDS011;60655;52.182;4.474;2023-02-28T07:16:30;11.27;;;5.57;;
72611;SDS011;60655;52.182;4.474;2023-02-28T07:18:31;13.52;;;6.15;;
72611;SDS011;60655;52.182;4.474;2023-02-28T07:20:32;16.90;;;5.93;;
72611;SDS011;60655;52.182;4.474;2023-02-28T07:22:33;13.95;;;6.00;;
72611;SDS011;60655;52.182;4.474;2023-02-28T07:24:34;10.80;;;5.45;;
72611;SDS011;60655;52.182;4.474;2023-02-28T07:26:35;15.30;;;5.88;;
72611;SDS011;60655;52.182;4.474;2023-02-28T07:28:36;12.18;;;5.75;;
72611;SDS011;60655;52.182;4.474;2023-02-28T07:30:38;13.75;;;5.28;;
72611;SDS011;60655;52.182;4.474;2023-02-28T07:32:40;11.40;;;5.10;;
72611;SDS011;60655;52.182;4.474;2023-02-28T07:34:41;10.15;;;4.72;;
72611;SDS011;60655;52.182;4.474;2023-02-28T07:38:43;11.38;;;3.53;;
72611;SDS011;60655;52.182;4.474;2023-02-28T07:40:47;9.55;;;3.80;;
72611;SDS011;60655;52.182;4.474;2023-02-28T07:42:48;8.70;;;4.05;;
72611;SDS011;60655;52.182;4.474;2023-02-28T07:44:49;8.80;;;3.83;;
72611;SDS011;60655;52.182;4.474;2023-02-28T07:46:52;9.40;;;4.30;;
72611;SDS011;60655;52.182;4.474;2023-02-28T07:48:53;9.73;;;4.38;;
72611;SDS011;60655;52.182;4.474;2023-02-28T07:50:56;8.25;;;3.72;;
72611;SDS011;60655;52.182;4.474;2023-02-28T07:52:58;8.88;;;3.88;;
72611;SDS011;60655;52.182;4.474;2023-02-28T07:54:59;7.82;;;3.50;;
72611;SDS011;60655;52.182;4.474;2023-02-28T07:57:00;9.10;;;3.53;;
72611;SDS011;60655;52.182;4.474;2023-02-28T07:59:01;10.27;;;3.80;;
72611;SDS011;60655;52.182;4.474;2023-02-28T08:03:09;7.10;;;3.22;;
72611;SDS011;60655;52.182;4.474;2023-02-28T08:05:12;7.25;;;2.92;;
72611;SDS011;60655;52.182;4.474;2023-02-28T08:07:14;8.10;;;3.13;;
72611;SDS011;60655;52.182;4.474;2023-02-28T08:09:16;9.27;;;3.30;;
72611;SDS011;60655;52.182;4.474;2023-02-28T08:11:17;9.45;;;3.25;;
72611;SDS011;60655;52.182;4.474;2023-02-28T08:13:18;11.38;;;5.15;;
72611;SDS011;60655;52.182;4.474;2023-02-28T08:15:19;9.73;;;4.10;;
72611;SDS011;60655;52.182;4.474;2023-02-28T08:17:20;7.28;;;3.38;;
72611;SDS011;60655;52.182;4.474;2023-02-28T08:19:21;7.18;;;3.20;;
72611;SDS011;60655;52.182;4.474;2023-02-28T08:21:22;8.05;;;3.25;;
72611;SDS011;60655;52.182;4.474;2023-02-28T08:23:23;7.40;;;3.40;;
72611;SDS011;60655;52.182;4.474;2023-02-28T08:25:24;7.65;;;3.42;;
72611;SDS011;60655;52.182;4.474;2023-02-28T08:27:26;8.23;;;3.10;;
72611;SDS011;60655;52.182;4.474;2023-02-28T08:29:27;8.00;;;3.42;;
72611;SDS011;60655;52.182;4.474;2023-02-28T08:31:28;7.50;;;3.38;;
72611;SDS011;60655;52.182;4.474;2023-02-28T08:33:29;7.13;;;3.03;;
72611;SDS011;60655;52.182;4.474;2023-02-28T08:35:31;8.02;;;3.53;;
72611;SDS011;60655;52.182;4.474;2023-02-28T08:37:32;7.55;;;3.47;;
72611;SDS011;60655;52.182;4.474;2023-02-28T08:39:34;7.65;;;3.42;;
72611;SDS011;60655;52.182;4.474;2023-02-28T08:41:36;7.95;;;3.03;;
72611;SDS011;60655;52.182;4.474;2023-02-28T08:43:37;7.47;;;3.42;;
72611;SDS011;60655;52.182;4.474;2023-02-28T08:45:39;7.88;;;3.40;;
72611;SDS011;60655;52.182;4.474;2023-02-28T08:47:40;7.93;;;3.28;;
72611;SDS011;60655;52.182;4.474;2023-02-28T08:49:42;10.23;;;3.55;;
72611;SDS011;60655;52.182;4.474;2023-02-28T08:51:43;7.57;;;3.33;;
72611;SDS011;60655;52.182;4.474;2023-02-28T08:53:44;8.05;;;3.50;;
72611;SDS011;60655;52.182;4.474;2023-02-28T08:55:46;8.35;;;3.75;;
72611;SDS011;60655;52.182;4.474;2023-02-28T08:57:47;12.45;;;4.70;;
72611;SDS011;60655;52.182;4.474;2023-02-28T08:59:48;8.88;;;4.35;;
72611;SDS011;60655;52.182;4.474;2023-02-28T09:01:49;8.27;;;3.42;;
72611;SDS011;60655;52.182;4.474;2023-02-28T09:03:50;9.23;;;3.90;;
72611;SDS011;60655;52.182;4.474;2023-02-28T09:05:55;7.93;;;3.28;;
72611;SDS011;60655;52.182;4.474;2023-02-28T09:07:57;9.10;;;3.85;;
72611;SDS011;60655;52.182;4.474;2023-02-28T09:10:00;8.98;;;3.58;;
72611;SDS011;60655;52.182;4.474;2023-02-28T09:12:01;6.72;;;2.90;;
72611;SDS011;60655;52.182;4.474;2023-02-28T09:14:03;9.57;;;3.92;;
72611;SDS011;60655;52.182;4.474;2023-02-28T09:18:06;10.85;;;3.67;;
72611;SDS011;60655;52.182;4.474;2023-02-28T09:20:07;8.30;;;3.38;;
72611;SDS011;60655;52.182;4.474;2023-02-28T09:22:10;8.27;;;3.08;;
72611;SDS011;60655;52.182;4.474;2023-02-28T09:24:12;7.70;;;3.17;;
72611;SDS011;60655;52.182;4.474;2023-02-28T09:26:15;8.35;;;3.28;;
72611;SDS011;60655;52.182;4.474;2023-02-28T09:28:18;8.27;;;3.53;;
72611;SDS011;60655;52.182;4.474;2023-02-28T09:30:20;8.13;;;3.47;;
72611;SDS011;60655;52.182;4.474;2023-02-28T09:32:21;8.32;;;3.50;;
72611;SDS011;60655;52.182;4.474;2023-02-28T09:34:22;6.35;;;2.83;;
72611;SDS011;60655;52.182;4.474;2023-02-28T09:36:24;9.15;;;3.55;;
72611;SDS011;60655;52.182;4.474;2023-02-28T09:38:26;8.50;;;3.33;;
72611;SDS011;60655;52.182;4.474;2023-02-28T09:40:28;8.00;;;3.40;;
72611;SDS011;60655;52.182;4.474;2023-02-28T09:44:37;6.28;;;2.60;;
72611;SDS011;60655;52.182;4.474;2023-02-28T09:46:44;8.95;;;3.28;;
72611;SDS011;60655;52.182;4.474;2023-02-28T09:48:49;7.45;;;2.95;;
72611;SDS011;60655;52.182;4.474;2023-02-28T09:50:52;8.13;;;2.88;;
72611;SDS011;60655;52.182;4.474;2023-02-28T09:52:59;6.97;;;3.17;;
72611;SDS011;60655;52.182;4.474;2023-02-28T09:55:18;7.35;;;2.95;;
72611;SDS011;60655;52.182;4.474;2023-02-28T10:03:56;6.57;;;2.72;;
72611;SDS011;60655;52.182;4.474;2023-02-28T10:06:06;8.55;;;2.83;;
72611;SDS011;60655;52.182;4.474;2023-02-28T10:08:22;6.80;;;3.55;;
72611;SDS011;60655;52.182;4.474;2023-02-28T10:12:40;7.25;;;3.00;;
72611;SDS011;60655;52.182;4.474;2023-02-28T10:14:46;9.18;;;3.08;;
72611;SDS011;60655;52.182;4.474;2023-02-28T10:19:21;6.18;;;2.15;;
72611;SDS011;60655;52.182;4.474;2023-02-28T10:21:28;5.70;;;2.25;;
72611;SDS011;60655;52.182;4.474;2023-02-28T10:23:34;5.90;;;2.80;;
72611;SDS011;60655;52.182;4.474;2023-02-28T10:25:37;7.63;;;2.78;;
72611;SDS011;60655;52.182;4.474;2023-02-28T10:27:39;8.32;;;2.85;;
72611;SDS011;60655;52.182;4.474;2023-02-28T10:29:40;5.32;;;2.20;;
72611;SDS011;60655;52.182;4.474;2023-02-28T10:31:44;5.70;;;2.33;;
72611;SDS011;60655;52.182;4.474;2023-02-28T10:35:46;7.38;;;2.70;;
72611;SDS011;60655;52.182;4.474;2023-02-28T10:37:49;6.47;;;2.60;;
72611;SDS011;60655;52.182;4.474;2023-02-28T10:39:59;8.35;;;2.72;;
72611;SDS011;60655;52.182;4.474;2023-02-28T10:42:00;8.70;;;2.63;;
72611;SDS011;60655;52.182;4.474;2023-02-28T10:44:14;8.10;;;2.67;;
72611;SDS011;60655;52.182;4.474;2023-02-28T10:46:21;5.40;;;2.35;;
72611;SDS011;60655;52.182;4.474;2023-02-28T10:48:30;6.85;;;2.80;;
72611;SDS011;60655;52.182;4.474;2023-02-28T10:50:37;6.97;;;2.53;;
72611;SDS011;60655;52.182;4.474;2023-02-28T10:52:43;5.55;;;2.33;;
72611;SDS011;60655;52.182;4.474;2023-02-28T10:54:44;6.03;;;2.65;;
72611;SDS011;60655;52.182;4.474;2023-02-28T11:02:54;5.00;;;2.05;;
72611;SDS011;60655;52.182;4.474;2023-02-28T11:04:55;6.55;;;2.10;;
72611;SDS011;60655;52.182;4.474;2023-02-28T11:06:57;4.90;;;2.20;;
72611;SDS011;60655;52.182;4.474;2023-02-28T11:09:14;4.72;;;2.00;;
72611;SDS011;60655;52.182;4.474;2023-02-28T11:11:41;6.03;;;2.45;;
72611;SDS011;60655;52.182;4.474;2023-02-28T11:13:45;6.28;;;2.67;;
72611;SDS011;60655;52.182;4.474;2023-02-28T11:15:54;7.65;;;2.30;;
72611;SDS011;60655;52.182;4.474;2023-02-28T11:20:21;6.15;;;2.25;;
72611;SDS011;60655;52.182;4.474;2023-02-28T11:22:26;9.23;;;2.60;;
72611;SDS011;60655;52.182;4.474;2023-02-28T11:24:33;6.25;;;2.22;;
72611;SDS011;60655;52.182;4.474;2023-02-28T11:26:43;5.18;;;2.50;;
72611;SDS011;60655;52.182;4.474;2023-02-28T11:28:46;5.13;;;2.17;;
72611;SDS011;60655;52.182;4.474;2023-02-28T11:30:49;5.70;;;2.42;;
72611;SDS011;60655;52.182;4.474;2023-02-28T11:33:18;6.53;;;2.58;;
72611;SDS011;60655;52.182;4.474;2023-02-28T11:37:30;6.05;;;1.80;;
72611;SDS011;60655;52.182;4.474;2023-02-28T11:39:33;4.72;;;2.10;;
72611;SDS011;60655;52.182;4.474;2023-02-28T11:44:37;5.43;;;1.92;;
72611;SDS011;60655;52.182;4.474;2023-02-28T11:46:35;4.78;;;1.65;;
72611;SDS011;60655;52.182;4.474;2023-02-28T11:48:41;5.28;;;1.88;;
72611;SDS011;60655;52.182;4.474;2023-02-28T11:53:19;4.25;;;1.70;;
72611;SDS011;60655;52.182;4.474;2023-02-28T12:00:35;5.18;;;1.83;;
72611;SDS011;60655;52.182;4.474;2023-02-28T12:02:48;6.57;;;2.05;;
72611;SDS011;60655;52.182;4.474;2023-02-28T12:05:12;6.35;;;2.50;;
72611;SDS011;60655;52.182;4.474;2023-02-28T12:12:25;4.82;;;2.10;;
72611;SDS011;60655;52.182;4.474;2023-02-28T12:26:56;6.30;;;2.20;;
72611;SDS011;60655;52.182;4.474;2023-02-28T12:29:08;4.80;;;2.10;;
72611;SDS011;60655;52.182;4.474;2023-02-28T12:31:29;3.75;;;1.73;;
72611;SDS011;60655;52.182;4.474;2023-02-28T12:33:37;5.18;;;2.20;;
72611;SDS011;60655;52.182;4.474;2023-02-28T12:35:47;6.15;;;1.83;;
72611;SDS011;60655;52.182;4.474;2023-02-28T12:38:05;4.45;;;2.10;;
72611;SDS011;60655;52.182;4.474;2023-02-28T12:40:17;5.30;;;2.28;;
72611;SDS011;60655;52.182;4.474;2023-02-28T12:42:26;3.47;;;1.55;;
72611;SDS011;60655;52.182;4.474;2023-02-28T12:46:33;4.78;;;1.90;;
72611;SDS011;60655;52.182;4.474;2023-02-28T12:50:42;10.13;;;2.10;;
72611;SDS011;60655;52.182;4.474;2023-02-28T12:53:03;7.80;;;2.10;;
72611;SDS011;60655;52.182;4.474;2023-02-28T12:55:21;4.15;;;1.60;;
72611;SDS011;60655;52.182;4.474;2023-02-28T12:57:34;5.15;;;1.85;;
72611;SDS011;60655;52.182;4.474;2023-02-28T12:59:52;6.18;;;2.30;;
72611;SDS011;60655;52.182;4.474;2023-02-28T13:04:32;4.43;;;2.00;;
72611;SDS011;60655;52.182;4.474;2023-02-28T13:09:12;5.10;;;1.75;;
72611;SDS011;60655;52.182;4.474;2023-02-28T13:13:29;4.97;;;1.92;;
72611;SDS011;60655;52.182;4.474;2023-02-28T13:15:31;5.97;;;2.40;;
72611;SDS011;60655;52.182;4.474;2023-02-28T13:17:35;4.60;;;2.40;;
72611;SDS011;60655;52.182;4.474;2023-02-28T13:19:37;4.45;;;1.88;;
72611;SDS011;60655;52.182;4.474;2023-02-28T13:21:41;5.25;;;2.30;;
72611;SDS011;60655;52.182;4.474;2023-02-28T13:25:52;4.78;;;1.90;;
72611;SDS011;60655;52.182;4.474;2023-02-28T13:27:54;4.75;;;1.80;;
72611;SDS011;60655;52.182;4.474;2023-02-28T13:32:42;5.53;;;2.22;;
72611;SDS011;60655;52.182;4.474;2023-02-28T13:39:45;4.50;;;2.03;;
72611;SDS011;60655;52.182;4.474;2023-02-28T13:41:53;5.45;;;2.20;;
72611;SDS011;60655;52.182;4.474;2023-02-28T13:46:08;5.20;;;2.00;;
72611;SDS011;60655;52.182;4.474;2023-02-28T13:48:16;5.00;;;2.03;;
72611;SDS011;60655;52.182;4.474;2023-02-28T13:52:22;4.00;;;1.75;;
72611;SDS011;60655;52.182;4.474;2023-02-28T13:54:33;5.63;;;2.38;;
72611;SDS011;60655;52.182;4.474;2023-02-28T13:56:48;5.85;;;2.15;;
72611;SDS011;60655;52.182;4.474;2023-02-28T13:59:07;10.45;;;4.05;;
72611;SDS011;60655;52.182;4.474;2023-02-28T14:03:51;6.07;;;2.42;;
72611;SDS011;60655;52.182;4.474;2023-02-28T14:06:13;5.45;;;2.20;;
72611;SDS011;60655;52.182;4.474;2023-02-28T14:08:21;6.18;;;2.17;;
72611;SDS011;60655;52.182;4.474;2023-02-28T14:10:25;5.78;;;2.50;;
72611;SDS011;60655;52.182;4.474;2023-02-28T14:14:58;5.25;;;2.10;;
72611;SDS011;60655;52.182;4.474;2023-02-28T14:19:00;6.97;;;2.42;;
72611;SDS011;60655;52.182;4.474;2023-02-28T14:21:26;4.47;;;1.95;;
72611;SDS011;60655;52.182;4.474;2023-02-28T14:25:45;5.13;;;2.05;;
72611;SDS011;60655;52.182;4.474;2023-02-28T14:28:01;5.10;;;2.10;;
72611;SDS011;60655;52.182;4.474;2023-02-28T14:34:50;5.00;;;1.92;;
72611;SDS011;60655;52.182;4.474;2023-02-28T14:36:57;5.25;;;2.10;;
72611;SDS011;60655;52.182;4.474;2023-02-28T14:39:03;5.90;;;1.92;;
72611;SDS011;60655;52.182;4.474;2023-02-28T14:41:12;5.43;;;1.98;;
72611;SDS011;60655;52.182;4.474;2023-02-28T14:43:24;6.75;;;2.10;;
72611;SDS011;60655;52.182;4.474;2023-02-28T14:45:28;4.63;;;1.77;;
72611;SDS011;60655;52.182;4.474;2023-02-28T14:47:32;8.82;;;2.47;;
72611;SDS011;60655;52.182;4.474;2023-02-28T14:49:41;4.80;;;1.98;;
72611;SDS011;60655;52.182;4.474;2023-02-28T14:51:46;6.53;;;2.10;;
72611;SDS011;60655;52.182;4.474;2023-02-28T14:53:51;4.75;;;2.20;;
72611;SDS011;60655;52.182;4.474;2023-02-28T14:55:57;6.75;;;2.40;;
72611;SDS011;60655;52.182;4.474;2023-02-28T14:57:59;6.38;;;2.60;;
72611;SDS011;60655;52.182;4.474;2023-02-28T15:00:11;5.32;;;2.30;;
72611;SDS011;60655;52.182;4.474;2023-02-28T15:02:22;4.95;;;2.35;;
72611;SDS011;60655;52.182;4.474;2023-02-28T15:04:26;5.90;;;2.53;;
72611;SDS011;60655;52.182;4.474;2023-02-28T15:06:32;6.22;;;2.65;;